sensor_id;sensor_type;location;lat;lon;timestamp;pressure;altitude;pressure_sealevel;temperature;humidity
36748;BME280;22716;51.556;5.080;2022-08-01T00:00:17;101444.41;;;19.98;100.00
36748;BME280;22716;51.556;5.080;2022-08-01T00:02:46;101457.47;;;20.04;100.00
36748;BME280;22716;51.556;5.080;2022-08-01T00:05:15;101459.19;;;20.05;100.00
36748;BME280;22716;51.556;5.080;2022-08-01T00:07:46;101458.22;;;20.07;100.00
36748;BME280;22716;51.556;5.080;2022-08-01T00:10:16;101457.63;;;19.99;100.00
36748;BME280;22716;51.556;5.080;2022-08-01T00:12:46;101459.38;;;20.00;100.00
36748;BME280;22716;51.556;5.080;2022-08-01T00:15:17;101460.25;;;20.01;100.00
36748;BME280;22716;51.556;5.080;2022-08-01T00:17:50;101451.47;;;19.99;100.00
36748;BME280;22716;51.556;5.080;2022-08-01T00:20:20;101457.72;;;19.98;100.00
36748;BME280;22716;51.556;5.080;2022-08-01T00:22:52;101457.84;;;19.95;100.00
36748;BME280;22716;51.556;5.080;2022-08-01T00:25:21;101459.69;;;19.93;100.00
36748;BME280;22716;51.556;5.080;2022-08-01T00:27:50;101464.19;;;19.91;100.00
36748;BME280;22716;51.556;5.080;2022-08-01T00:30:20;101471.50;;;19.86;100.00
36748;BME280;22716;51.556;5.080;2022-08-01T00:32:49;101467.19;;;19.82;100.00
36748;BME280;22716;51.556;5.080;2022-08-01T00:35:18;101468.84;;;19.86;100.00
36748;BME280;22716;51.556;5.080;2022-08-01T00:37:47;101475.91;;;19.87;100.00
36748;BME280;22716;51.556;5.080;2022-08-01T00:40:21;101473.22;;;19.87;100.00
36748;BME280;22716;51.556;5.080;2022-08-01T00:42:50;101476.72;;;19.87;100.00
36748;BME280;22716;51.556;5.080;2022-08-01T00:45:19;101469.88;;;19.82;100.00
36748;BME280;22716;51.556;5.080;2022-08-01T00:47:48;101470.69;;;19.84;100.00
36748;BME280;22716;51.556;5.080;2022-08-01T00:50:17;101480.47;;;19.83;100.00
36748;BME280;22716;51.556;5.080;2022-08-01T00:52:47;101468.16;;;19.81;100.00
36748;BME280;22716;51.556;5.080;2022-08-01T00:55:20;101477.16;;;19.77;100.00
36748;BME280;22716;51.556;5.080;2022-08-01T00:57:50;101469.53;;;19.68;100.00
36748;BME280;22716;51.556;5.080;2022-08-01T01:00:20;101480.16;;;19.68;100.00
36748;BME280;22716;51.556;5.080;2022-08-01T01:02:49;101471.38;;;19.66;100.00
36748;BME280;22716;51.556;5.080;2022-08-01T01:05:18;101474.97;;;19.65;100.00
36748;BME280;22716;51.556;5.080;2022-08-01T01:07:52;101467.75;;;19.68;100.00
36748;BME280;22716;51.556;5.080;2022-08-01T01:10:31;101452.81;;;19.64;100.00
36748;BME280;22716;51.556;5.080;2022-08-01T01:13:23;101458.91;;;19.68;100.00
36748;BME280;22716;51.556;5.080;2022-08-01T01:15:59;101461.63;;;19.66;100.00
36748;BME280;22716;51.556;5.080;2022-08-01T01:18:34;101466.19;;;19.63;100.00
36748;BME280;22716;51.556;5.080;2022-08-01T01:21:11;101466.13;;;19.64;100.00
36748;BME280;22716;51.556;5.080;2022-08-01T01:23:57;101460.69;;;19.67;100.00
36748;BME280;22716;51.556;5.080;2022-08-01T01:26:43;101465.16;;;19.67;100.00
36748;BME280;22716;51.556;5.080;2022-08-01T01:29:20;101469.50;;;19.69;100.00
36748;BME280;22716;51.556;5.080;2022-08-01T01:31:53;101454.56;;;19.65;100.00
36748;BME280;22716;51.556;5.080;2022-08-01T01:34:26;101461.56;;;19.68;100.00
36748;BME280;22716;51.556;5.080;2022-08-01T01:36:58;101453.66;;;19.66;100.00
36748;BME280;22716;51.556;5.080;2022-08-01T01:39:30;101451.00;;;19.66;100.00
36748;BME280;22716;51.556;5.080;2022-08-01T01:42:01;101457.06;;;19.70;100.00
36748;BME280;22716;51.556;5.080;2022-08-01T01:44:34;101464.19;;;19.69;100.00
36748;BME280;22716;51.556;5.080;2022-08-01T01:47:05;101462.38;;;19.70;100.00
36748;BME280;22716;51.556;5.080;2022-08-01T01:49:38;101457.91;;;19.70;100.00
36748;BME280;22716;51.556;5.080;2022-08-01T01:52:09;101465.84;;;19.72;100.00
36748;BME280;22716;51.556;5.080;2022-08-01T01:54:44;101462.38;;;19.70;100.00
36748;BME280;22716;51.556;5.080;2022-08-01T01:57:15;101465.16;;;19.67;100.00
36748;BME280;22716;51.556;5.080;2022-08-01T01:59:48;101465.19;;;19.65;100.00
36748;BME280;22716;51.556;5.080;2022-08-01T02:02:19;101459.00;;;19.65;100.00
36748;BME280;22716;51.556;5.080;2022-08-01T02:04:50;101468.72;;;19.66;100.00
36748;BME280;22716;51.556;5.080;2022-08-01T02:07:22;101460.81;;;19.64;100.00
36748;BME280;22716;51.556;5.080;2022-08-01T02:09:55;101455.47;;;19.64;100.00
36748;BME280;22716;51.556;5.080;2022-08-01T02:12:25;101452.91;;;19.63;100.00
36748;BME280;22716;51.556;5.080;2022-08-01T02:14:58;101453.81;;;19.62;100.00
36748;BME280;22716;51.556;5.080;2022-08-01T02:17:30;101454.75;;;19.61;100.00
36748;BME280;22716;51.556;5.080;2022-08-01T02:20:00;101460.88;;;19.63;100.00
36748;BME280;22716;51.556;5.080;2022-08-01T02:22:34;101452.25;;;19.56;100.00
36748;BME280;22716;51.556;5.080;2022-08-01T02:25:10;101458.38;;;19.58;100.00
36748;BME280;22716;51.556;5.080;2022-08-01T02:27:42;101458.38;;;19.58;100.00
36748;BME280;22716;51.556;5.080;2022-08-01T02:30:15;101468.22;;;19.56;100.00
36748;BME280;22716;51.556;5.080;2022-08-01T02:32:47;101462.25;;;19.49;100.00
36748;BME280;22716;51.556;5.080;2022-08-01T02:35:22;101464.91;;;19.49;100.00
36748;BME280;22716;51.556;5.080;2022-08-01T02:37:52;101463.31;;;19.45;100.00
36748;BME280;22716;51.556;5.080;2022-08-01T02:40:23;101469.31;;;19.50;100.00
36748;BME280;22716;51.556;5.080;2022-08-01T02:42:57;101469.31;;;19.50;100.00
36748;BME280;22716;51.556;5.080;2022-08-01T02:45:32;101462.31;;;19.48;100.00
36748;BME280;22716;51.556;5.080;2022-08-01T02:48:08;101458.84;;;19.46;100.00
36748;BME280;22716;51.556;5.080;2022-08-01T02:50:41;101459.66;;;19.48;100.00
36748;BME280;22716;51.556;5.080;2022-08-01T02:53:12;101466.88;;;19.44;100.00
36748;BME280;22716;51.556;5.080;2022-08-01T02:55:43;101464.97;;;19.48;100.00
36748;BME280;22716;51.556;5.080;2022-08-01T02:58:15;101463.19;;;19.48;100.00
36748;BME280;22716;51.556;5.080;2022-08-01T03:00:48;101465.88;;;19.47;100.00
36748;BME280;22716;51.556;5.080;2022-08-01T03:03:17;101458.00;;;19.45;100.00
36748;BME280;22716;51.556;5.080;2022-08-01T03:05:49;101465.97;;;19.45;100.00
36748;BME280;22716;51.556;5.080;2022-08-01T03:08:21;101464.97;;;19.48;100.00
36748;BME280;22716;51.556;5.080;2022-08-01T03:10:51;101460.69;;;19.44;100.00
36748;BME280;22716;51.556;5.080;2022-08-01T03:13:22;101472.16;;;19.46;100.00
36748;BME280;22716;51.556;5.080;2022-08-01T03:15:56;101471.31;;;19.44;100.00
36748;BME280;22716;51.556;5.080;2022-08-01T03:18:27;101465.13;;;19.43;100.00
36748;BME280;22716;51.556;5.080;2022-08-01T03:20:59;101466.97;;;19.41;100.00
36748;BME280;22716;51.556;5.080;2022-08-01T03:23:30;101479.25;;;19.45;100.00
36748;BME280;22716;51.556;5.080;2022-08-01T03:26:02;101477.56;;;19.43;100.00
36748;BME280;22716;51.556;5.080;2022-08-01T03:28:32;101473.09;;;19.43;100.00
36748;BME280;22716;51.556;5.080;2022-08-01T03:31:04;101487.22;;;19.45;100.00
36748;BME280;22716;51.556;5.080;2022-08-01T03:33:34;101476.69;;;19.42;100.00
36748;BME280;22716;51.556;5.080;2022-08-01T03:36:05;101473.22;;;19.40;100.00
36748;BME280;22716;51.556;5.080;2022-08-01T03:38:39;101477.50;;;19.44;100.00
36748;BME280;22716;51.556;5.080;2022-08-01T03:41:13;101475.81;;;19.42;100.00
36748;BME280;22716;51.556;5.080;2022-08-01T03:43:47;101466.50;;;19.30;100.00
36748;BME280;22716;51.556;5.080;2022-08-01T03:46:26;101468.50;;;19.24;100.00
36748;BME280;22716;51.556;5.080;2022-08-01T03:49:02;101470.47;;;19.19;100.00
36748;BME280;22716;51.556;5.080;2022-08-01T03:51:32;101473.25;;;19.14;100.00
36748;BME280;22716;51.556;5.080;2022-08-01T03:54:04;101471.44;;;19.16;100.00
36748;BME280;22716;51.556;5.080;2022-08-01T03:56:34;101477.63;;;19.17;100.00
36748;BME280;22716;51.556;5.080;2022-08-01T03:59:05;101484.59;;;19.19;100.00
36748;BME280;22716;51.556;5.080;2022-08-01T04:01:37;101478.47;;;19.17;100.00
36748;BME280;22716;51.556;5.080;2022-08-01T04:04:06;101476.69;;;19.18;100.00
36748;BME280;22716;51.556;5.080;2022-08-01T04:06:38;101477.56;;;19.18;100.00
36748;BME280;22716;51.556;5.080;2022-08-01T04:09:07;101471.53;;;19.13;100.00
36748;BME280;22716;51.556;5.080;2022-08-01T04:11:37;101475.13;;;19.12;100.00
36748;BME280;22716;51.556;5.080;2022-08-01T04:14:06;101478.75;;;19.10;100.00
36748;BME280;22716;51.556;5.080;2022-08-01T04:16:38;101472.66;;;19.06;100.00
36748;BME280;22716;51.556;5.080;2022-08-01T04:19:07;101473.53;;;19.07;100.00
36748;BME280;22716;51.556;5.080;2022-08-01T04:21:36;101473.63;;;19.05;100.00
36748;BME280;22716;51.556;5.080;2022-08-01T04:24:10;101476.41;;;19.00;100.00
36748;BME280;22716;51.556;5.080;2022-08-01T04:26:43;101484.34;;;19.02;100.00
36748;BME280;22716;51.556;5.080;2022-08-01T04:29:16;101479.94;;;19.01;100.00
36748;BME280;22716;51.556;5.080;2022-08-01T04:31:49;101472.13;;;18.96;100.00
36748;BME280;22716;51.556;5.080;2022-08-01T04:34:22;101470.56;;;18.91;100.00
36748;BME280;22716;51.556;5.080;2022-08-01T04:36:54;101480.28;;;18.90;100.00
36748;BME280;22716;51.556;5.080;2022-08-01T04:39:25;101487.47;;;18.88;100.00
36748;BME280;22716;51.556;5.080;2022-08-01T04:41:57;101481.28;;;18.88;100.00
36748;BME280;22716;51.556;5.080;2022-08-01T04:44:29;101475.00;;;18.90;100.00
36748;BME280;22716;51.556;5.080;2022-08-01T04:47:02;101475.88;;;18.91;100.00
36748;BME280;22716;51.556;5.080;2022-08-01T04:49:34;101481.03;;;18.95;100.00
36748;BME280;22716;51.556;5.080;2022-08-01T04:52:05;101492.25;;;19.03;100.00
36748;BME280;22716;51.556;5.080;2022-08-01T04:54:35;101503.63;;;19.07;100.00
36748;BME280;22716;51.556;5.080;2022-08-01T04:57:06;101499.19;;;19.08;100.00
36748;BME280;22716;51.556;5.080;2022-08-01T04:59:37;101512.28;;;19.12;100.00
36748;BME280;22716;51.556;5.080;2022-08-01T05:02:16;101500.38;;;18.99;100.00
36748;BME280;22716;51.556;5.080;2022-08-01T05:04:46;101517.72;;;19.09;100.00
36748;BME280;22716;51.556;5.080;2022-08-01T05:07:15;101501.28;;;18.98;100.00
36748;BME280;22716;51.556;5.080;2022-08-01T05:09:44;101528.44;;;19.06;100.00
36748;BME280;22716;51.556;5.080;2022-08-01T05:12:14;101509.94;;;19.05;100.00
36748;BME280;22716;51.556;5.080;2022-08-01T05:14:44;101517.50;;;19.15;100.00
36748;BME280;22716;51.556;5.080;2022-08-01T05:17:16;101506.78;;;19.18;100.00
36748;BME280;22716;51.556;5.080;2022-08-01T05:19:45;101517.66;;;19.35;100.00
36748;BME280;22716;51.556;5.080;2022-08-01T05:22:15;101522.69;;;19.44;100.00
36748;BME280;22716;51.556;5.080;2022-08-01T05:24:44;101520.50;;;19.55;100.00
36748;BME280;22716;51.556;5.080;2022-08-01T05:27:13;101518.16;;;19.71;100.00
36748;BME280;22716;51.556;5.080;2022-08-01T05:29:42;101516.59;;;19.66;100.00
36748;BME280;22716;51.556;5.080;2022-08-01T05:32:11;101525.47;;;19.65;100.00
36748;BME280;22716;51.556;5.080;2022-08-01T05:34:42;101517.59;;;19.62;100.00
36748;BME280;22716;51.556;5.080;2022-08-01T05:37:12;101526.69;;;19.56;100.00
36748;BME280;22716;51.556;5.080;2022-08-01T05:39:41;101523.38;;;19.49;100.00
36748;BME280;22716;51.556;5.080;2022-08-01T05:42:10;101518.25;;;19.45;100.00
36748;BME280;22716;51.556;5.080;2022-08-01T05:44:39;101525.34;;;19.44;100.00
36748;BME280;22716;51.556;5.080;2022-08-01T05:47:08;101526.13;;;19.46;100.00
36748;BME280;22716;51.556;5.080;2022-08-01T05:49:38;101525.31;;;19.46;100.00
36748;BME280;22716;51.556;5.080;2022-08-01T05:52:10;101528.91;;;19.43;100.00
36748;BME280;22716;51.556;5.080;2022-08-01T05:54:40;101527.31;;;19.39;100.00
36748;BME280;22716;51.556;5.080;2022-08-01T05:57:09;101525.53;;;19.38;100.00
36748;BME280;22716;51.556;5.080;2022-08-01T05:59:39;101522.00;;;19.39;100.00
36748;BME280;22716;51.556;5.080;2022-08-01T06:02:08;101525.53;;;19.38;100.00
36748;BME280;22716;51.556;5.080;2022-08-01T06:04:38;101527.31;;;19.38;100.00
36748;BME280;22716;51.556;5.080;2022-08-01T06:07:10;101531.63;;;19.42;100.00
36748;BME280;22716;51.556;5.080;2022-08-01T06:09:39;101531.56;;;19.43;100.00
36748;BME280;22716;51.556;5.080;2022-08-01T06:12:08;101528.00;;;19.44;100.00
36748;BME280;22716;51.556;5.080;2022-08-01T06:14:37;101536.72;;;19.48;100.00
36748;BME280;22716;51.556;5.080;2022-08-01T06:17:06;101533.31;;;19.44;100.00
36748;BME280;22716;51.556;5.080;2022-08-01T06:19:36;101536.94;;;19.42;100.00
36748;BME280;22716;51.556;5.080;2022-08-01T06:22:05;101536.38;;;19.32;100.00
36748;BME280;22716;51.556;5.080;2022-08-01T06:24:36;101536.47;;;19.29;100.00
36748;BME280;22716;51.556;5.080;2022-08-01T06:27:05;101536.53;;;19.28;100.00
36748;BME280;22716;51.556;5.080;2022-08-01T06:29:34;101531.94;;;19.33;100.00
36748;BME280;22716;51.556;5.080;2022-08-01T06:32:04;101541.47;;;19.38;100.00
36748;BME280;22716;51.556;5.080;2022-08-01T06:34:33;101541.28;;;19.44;100.00
36748;BME280;22716;51.556;5.080;2022-08-01T06:37:02;101544.63;;;19.49;100.00
36748;BME280;22716;51.556;5.080;2022-08-01T06:39:31;101539.84;;;19.59;100.00
36748;BME280;22716;51.556;5.080;2022-08-01T06:42:03;101545.06;;;19.62;100.00
36748;BME280;22716;51.556;5.080;2022-08-01T06:44:33;101558.31;;;19.64;100.00
36748;BME280;22716;51.556;5.080;2022-08-01T06:47:02;101549.50;;;19.62;100.00
36748;BME280;22716;51.556;5.080;2022-08-01T06:49:31;101563.41;;;19.70;100.00
36748;BME280;22716;51.556;5.080;2022-08-01T06:52:00;101557.25;;;19.68;100.00
36748;BME280;22716;51.556;5.080;2022-08-01T06:54:29;101558.03;;;19.71;100.00
36748;BME280;22716;51.556;5.080;2022-08-01T06:57:02;101561.56;;;19.72;100.00
36748;BME280;22716;51.556;5.080;2022-08-01T06:59:32;101565.13;;;19.71;100.00
36748;BME280;22716;51.556;5.080;2022-08-01T07:02:01;101563.34;;;19.71;100.00
36748;BME280;22716;51.556;5.080;2022-08-01T07:04:30;101558.09;;;19.70;100.00
36748;BME280;22716;51.556;5.080;2022-08-01T07:06:59;101570.34;;;19.74;100.00
36748;BME280;22716;51.556;5.080;2022-08-01T07:09:30;101571.09;;;19.77;100.00
36748;BME280;22716;51.556;5.080;2022-08-01T07:12:03;101564.69;;;19.83;100.00
36748;BME280;22716;51.556;5.080;2022-08-01T07:14:32;101568.78;;;19.91;100.00
36748;BME280;22716;51.556;5.080;2022-08-01T07:17:01;101569.81;;;19.87;100.00
36748;BME280;22716;51.556;5.080;2022-08-01T07:19:30;101575.84;;;19.92;100.00
36748;BME280;22716;51.556;5.080;2022-08-01T07:21:59;101583.75;;;19.94;100.00
36748;BME280;22716;51.556;5.080;2022-08-01T07:24:29;101576.84;;;19.90;100.00
36748;BME280;22716;51.556;5.080;2022-08-01T07:27:01;101578.53;;;19.91;100.00
36748;BME280;22716;51.556;5.080;2022-08-01T07:29:31;101583.88;;;19.91;100.00
36748;BME280;22716;51.556;5.080;2022-08-01T07:32:00;101573.34;;;19.88;100.00
36748;BME280;22716;51.556;5.080;2022-08-01T07:34:31;101582.88;;;19.93;100.00
36748;BME280;22716;51.556;5.080;2022-08-01T07:37:00;101575.50;;;20.01;100.00
36748;BME280;22716;51.556;5.080;2022-08-01T07:39:30;101587.63;;;20.08;100.00
36748;BME280;22716;51.556;5.080;2022-08-01T07:42:02;101585.91;;;20.07;100.00
36748;BME280;22716;51.556;5.080;2022-08-01T07:44:30;101580.53;;;20.09;100.00
36748;BME280;22716;51.556;5.080;2022-08-01T07:46:59;101591.56;;;20.22;100.00
36748;BME280;22716;51.556;5.080;2022-08-01T07:49:29;101587.84;;;20.27;100.00
36748;BME280;22716;51.556;5.080;2022-08-01T07:51:58;101587.59;;;20.33;100.00
36748;BME280;22716;51.556;5.080;2022-08-01T07:54:27;101585.38;;;20.44;100.00
36748;BME280;22716;51.556;5.080;2022-08-01T07:56:56;101588.59;;;20.52;100.00
36748;BME280;22716;51.556;5.080;2022-08-01T07:59:28;101583.97;;;20.57;100.00
36748;BME280;22716;51.556;5.080;2022-08-01T08:01:57;101591.72;;;20.63;100.00
36748;BME280;22716;51.556;5.080;2022-08-01T08:04:27;101588.63;;;20.74;100.00
36748;BME280;22716;51.556;5.080;2022-08-01T08:06:56;101590.78;;;20.86;100.00
36748;BME280;22716;51.556;5.080;2022-08-01T08:09:25;101571.13;;;20.89;100.00
36748;BME280;22716;51.556;5.080;2022-08-01T08:11:54;101578.75;;;20.98;100.00
36748;BME280;22716;51.556;5.080;2022-08-01T08:14:23;101584.47;;;21.10;100.00
36748;BME280;22716;51.556;5.080;2022-08-01T08:16:55;101586.78;;;21.18;100.00
36748;BME280;22716;51.556;5.080;2022-08-01T08:19:24;101586.59;;;21.22;100.00
36748;BME280;22716;51.556;5.080;2022-08-01T08:21:52;101580.88;;;21.32;100.00
36748;BME280;22716;51.556;5.080;2022-08-01T08:24:21;101585.53;;;21.47;99.92
36748;BME280;22716;51.556;5.080;2022-08-01T08:26:53;101580.53;;;21.59;98.70
36748;BME280;22716;51.556;5.080;2022-08-01T08:29:24;101592.50;;;21.69;98.30
36748;BME280;22716;51.556;5.080;2022-08-01T08:31:58;101598.13;;;21.84;97.64
36748;BME280;22716;51.556;5.080;2022-08-01T08:34:28;101586.72;;;21.80;97.73
36748;BME280;22716;51.556;5.080;2022-08-01T08:36:58;101581.44;;;21.78;97.69
36748;BME280;22716;51.556;5.080;2022-08-01T08:39:27;101597.00;;;21.89;97.88
36748;BME280;22716;51.556;5.080;2022-08-01T08:42:00;101597.44;;;21.78;97.39
36748;BME280;22716;51.556;5.080;2022-08-01T08:44:29;101597.66;;;21.74;97.56
36748;BME280;22716;51.556;5.080;2022-08-01T08:47:02;101600.59;;;21.68;97.24
36748;BME280;22716;51.556;5.080;2022-08-01T08:49:32;101605.31;;;21.61;97.37
36748;BME280;22716;51.556;5.080;2022-08-01T08:52:04;101600.47;;;21.51;97.30
36748;BME280;22716;51.556;5.080;2022-08-01T08:54:33;101595.41;;;21.65;97.21
36748;BME280;22716;51.556;5.080;2022-08-01T08:57:05;101594.38;;;21.88;96.83
36748;BME280;22716;51.556;5.080;2022-08-01T08:59:37;101590.44;;;21.96;95.37
36748;BME280;22716;51.556;5.080;2022-08-01T09:02:09;101595.00;;;22.13;95.48
36748;BME280;22716;51.556;5.080;2022-08-01T09:04:39;101587.56;;;22.19;94.01
36748;BME280;22716;51.556;5.080;2022-08-01T09:07:08;101593.16;;;22.33;92.62
36748;BME280;22716;51.556;5.080;2022-08-01T09:09:42;101593.69;;;22.40;91.51
36748;BME280;22716;51.556;5.080;2022-08-01T09:12:16;101596.31;;;22.60;91.22
36748;BME280;22716;51.556;5.080;2022-08-01T09:14:48;101604.03;;;22.48;90.94
36748;BME280;22716;51.556;5.080;2022-08-01T09:17:22;101602.00;;;22.34;91.69
36748;BME280;22716;51.556;5.080;2022-08-01T09:19:53;101602.59;;;22.22;91.72
36748;BME280;22716;51.556;5.080;2022-08-01T09:22:24;101613.91;;;22.27;92.52
36748;BME280;22716;51.556;5.080;2022-08-01T09:25:03;101622.09;;;22.43;91.69
36748;BME280;22716;51.556;5.080;2022-08-01T09:27:35;101624.09;;;22.56;91.74
36748;BME280;22716;51.556;5.080;2022-08-01T09:30:11;101616.44;;;22.67;91.06
36748;BME280;22716;51.556;5.080;2022-08-01T09:32:57;101615.94;;;22.59;91.28
36748;BME280;22716;51.556;5.080;2022-08-01T09:35:28;101617.38;;;22.48;91.10
36748;BME280;22716;51.556;5.080;2022-08-01T09:38:15;101626.47;;;22.44;91.84
36748;BME280;22716;51.556;5.080;2022-08-01T09:40:47;101638.00;;;22.44;92.39
36748;BME280;22716;51.556;5.080;2022-08-01T09:43:18;101636.66;;;22.36;93.32
36748;BME280;22716;51.556;5.080;2022-08-01T09:45:48;101633.97;;;22.36;93.62
36748;BME280;22716;51.556;5.080;2022-08-01T09:48:20;101639.38;;;22.34;95.02
36748;BME280;22716;51.556;5.080;2022-08-01T09:50:52;101636.28;;;22.43;95.60
36748;BME280;22716;51.556;5.080;2022-08-01T09:53:21;101640.41;;;22.50;95.48
36748;BME280;22716;51.556;5.080;2022-08-01T09:55:50;101635.50;;;22.41;95.59
36748;BME280;22716;51.556;5.080;2022-08-01T09:58:20;101642.44;;;22.45;95.24
36748;BME280;22716;51.556;5.080;2022-08-01T10:00:58;101643.81;;;22.54;95.76
36748;BME280;22716;51.556;5.080;2022-08-01T10:03:32;101648.63;;;22.46;95.47
36748;BME280;22716;51.556;5.080;2022-08-01T10:06:19;101652.88;;;22.50;94.85
36748;BME280;22716;51.556;5.080;2022-08-01T10:08:49;101651.88;;;22.52;94.52
36748;BME280;22716;51.556;5.080;2022-08-01T10:11:19;101656.88;;;22.60;94.48
36748;BME280;22716;51.556;5.080;2022-08-01T10:13:49;101657.06;;;22.55;94.29
36748;BME280;22716;51.556;5.080;2022-08-01T10:16:19;101641.41;;;22.48;94.11
36748;BME280;22716;51.556;5.080;2022-08-01T10:18:52;101672.88;;;22.60;93.07
36748;BME280;22716;51.556;5.080;2022-08-01T10:21:23;101671.28;;;22.56;92.13
36748;BME280;22716;51.556;5.080;2022-08-01T10:23:55;101657.66;;;22.62;90.85
36748;BME280;22716;51.556;5.080;2022-08-01T10:26:27;101668.84;;;22.70;90.23
36748;BME280;22716;51.556;5.080;2022-08-01T10:29:00;101662.28;;;22.77;89.29
36748;BME280;22716;51.556;5.080;2022-08-01T10:31:31;101664.59;;;22.84;88.91
36748;BME280;22716;51.556;5.080;2022-08-01T10:34:04;101665.59;;;23.01;88.02
36748;BME280;22716;51.556;5.080;2022-08-01T10:36:33;101666.94;;;23.09;87.27
36748;BME280;22716;51.556;5.080;2022-08-01T10:39:05;101660.28;;;23.18;87.07
36748;BME280;22716;51.556;5.080;2022-08-01T10:41:34;101656.81;;;23.16;86.80
36748;BME280;22716;51.556;5.080;2022-08-01T10:44:06;101661.91;;;23.20;86.96
36748;BME280;22716;51.556;5.080;2022-08-01T10:46:39;101663.31;;;23.10;87.06
36748;BME280;22716;51.556;5.080;2022-08-01T10:49:14;101654.56;;;22.90;87.13
36748;BME280;22716;51.556;5.080;2022-08-01T10:51:45;101661.91;;;22.84;87.37
36748;BME280;22716;51.556;5.080;2022-08-01T10:54:14;101664.59;;;22.84;87.36
36748;BME280;22716;51.556;5.080;2022-08-01T10:56:47;101667.84;;;22.91;87.73
36748;BME280;22716;51.556;5.080;2022-08-01T10:59:21;101662.25;;;22.96;87.17
36748;BME280;22716;51.556;5.080;2022-08-01T11:01:58;101656.00;;;22.78;87.51
36748;BME280;22716;51.556;5.080;2022-08-01T11:04:44;101681.44;;;22.86;87.54
36748;BME280;22716;51.556;5.080;2022-08-01T11:07:20;101687.56;;;22.88;86.06
36748;BME280;22716;51.556;5.080;2022-08-01T11:10:02;101680.59;;;23.03;85.49
36748;BME280;22716;51.556;5.080;2022-08-01T11:12:40;101678.50;;;23.10;85.72
36748;BME280;22716;51.556;5.080;2022-08-01T11:15:23;101670.69;;;23.05;85.83
36748;BME280;22716;51.556;5.080;2022-08-01T11:17:54;101682.50;;;23.01;85.55
36748;BME280;22716;51.556;5.080;2022-08-01T11:20:26;101679.53;;;22.88;84.87
36748;BME280;22716;51.556;5.080;2022-08-01T11:26:11;101687.13;;;22.98;84.60
36748;BME280;22716;51.556;5.080;2022-08-01T11:28:42;101665.91;;;23.12;83.63
36748;BME280;22716;51.556;5.080;2022-08-01T11:31:26;101682.84;;;23.12;83.15
36748;BME280;22716;51.556;5.080;2022-08-01T11:33:56;101679.09;;;22.98;83.54
36748;BME280;22716;51.556;5.080;2022-08-01T11:36:28;101685.81;;;23.06;83.65
36748;BME280;22716;51.556;5.080;2022-08-01T11:39:16;101685.97;;;23.20;83.39
36748;BME280;22716;51.556;5.080;2022-08-01T11:41:47;101680.03;;;23.32;82.06
36748;BME280;22716;51.556;5.080;2022-08-01T11:44:21;101679.44;;;23.45;81.95
36748;BME280;22716;51.556;5.080;2022-08-01T11:46:55;101674.16;;;23.60;81.17
36748;BME280;22716;51.556;5.080;2022-08-01T11:49:31;101687.16;;;23.68;81.09
36748;BME280;22716;51.556;5.080;2022-08-01T11:52:07;101662.53;;;23.61;80.36
36748;BME280;22716;51.556;5.080;2022-08-01T11:54:37;101679.59;;;23.59;81.33
36748;BME280;22716;51.556;5.080;2022-08-01T11:57:10;101679.44;;;23.45;81.30
36748;BME280;22716;51.556;5.080;2022-08-01T11:59:42;101674.09;;;23.45;82.59
36748;BME280;22716;51.556;5.080;2022-08-01T12:02:19;101677.19;;;23.54;82.04
36748;BME280;22716;51.556;5.080;2022-08-01T12:04:52;101675.28;;;23.39;82.54
36748;BME280;22716;51.556;5.080;2022-08-01T12:07:26;101680.91;;;23.33;83.52
36748;BME280;22716;51.556;5.080;2022-08-01T12:10:00;101695.66;;;23.41;83.54
36748;BME280;22716;51.556;5.080;2022-08-01T12:12:36;101685.28;;;23.34;83.49
36748;BME280;22716;51.556;5.080;2022-08-01T12:15:08;101687.34;;;23.29;83.31
36748;BME280;22716;51.556;5.080;2022-08-01T12:17:39;101681.31;;;23.07;83.27
36748;BME280;22716;51.556;5.080;2022-08-01T12:20:11;101693.28;;;23.17;82.93
36748;BME280;22716;51.556;5.080;2022-08-01T12:22:43;101697.16;;;23.28;82.54
36748;BME280;22716;51.556;5.080;2022-08-01T12:25:14;101688.69;;;23.37;81.68
36748;BME280;22716;51.556;5.080;2022-08-01T12:27:45;101687.69;;;23.40;81.64
36748;BME280;22716;51.556;5.080;2022-08-01T12:30:17;101686.97;;;23.36;81.22
36748;BME280;22716;51.556;5.080;2022-08-01T12:32:48;101690.00;;;23.29;81.63
36748;BME280;22716;51.556;5.080;2022-08-01T12:35:20;101697.72;;;23.35;81.56
36748;BME280;22716;51.556;5.080;2022-08-01T12:37:54;101692.97;;;23.41;80.73
36748;BME280;22716;51.556;5.080;2022-08-01T12:40:28;101709.28;;;23.54;81.05
36748;BME280;22716;51.556;5.080;2022-08-01T12:43:00;101699.66;;;23.67;80.63
36748;BME280;22716;51.556;5.080;2022-08-01T12:45:33;101696.19;;;23.82;79.70
36748;BME280;22716;51.556;5.080;2022-08-01T12:48:08;101691.25;;;23.92;79.32
36748;BME280;22716;51.556;5.080;2022-08-01T12:50:40;101687.22;;;24.01;78.26
36748;BME280;22716;51.556;5.080;2022-08-01T12:53:13;101688.59;;;24.08;76.07
36748;BME280;22716;51.556;5.080;2022-08-01T12:55:45;101680.72;;;24.05;75.02
36748;BME280;22716;51.556;5.080;2022-08-01T12:58:16;101681.53;;;24.24;74.11
36748;BME280;22716;51.556;5.080;2022-08-01T13:00:47;101675.00;;;24.45;73.12
36748;BME280;22716;51.556;5.080;2022-08-01T13:03:19;101673.28;;;24.44;71.78
36748;BME280;22716;51.556;5.080;2022-08-01T13:05:49;101671.63;;;24.41;71.96
36748;BME280;22716;51.556;5.080;2022-08-01T13:08:24;101675.00;;;24.45;72.15